Time;durP1;ratioP1;P1;durP2;ratioP2;P2;SDS_P1;SDS_P2;PMS_P1;PMS_P2;Temp;Humidity;BMP_temperature;BMP_pressure;BME280_temperature;BME280_humidity;BME280_pressure;Samples;Min_cycle;Max_cycle;Signal;HPM_P1;HPM_P2
2021/07/12 00:00:12;;;;;;;12.93;8.48;;;;;;;20.39;100.00;100155.52;2736196;87;21060;-60
2021/07/12 00:04:17;;;;;;;11.15;8.23;;;;;;;20.39;100.00;100151.47;2736250;87;21099;-61
2021/07/12 00:08:19;;;;;;;9.55;6.78;;;;;;;20.34;100.00;100140.92;2736061;85;21048;-63
2021/07/12 00:12:22;;;;;;;14.55;7.65;;;;;;;20.28;100.00;100144.41;2736341;87;21000;-63
2021/07/12 00:16:24;;;;;;;11.85;7.72;;;;;;;20.15;100.00;100149.17;2736539;87;21096;-61
2021/07/12 00:20:26;;;;;;;14.30;8.05;;;;;;;20.14;100.00;100146.16;2736464;87;21072;-63
2021/07/12 00:24:28;;;;;;;16.45;7.42;;;;;;;20.14;100.00;100148.84;2736450;86;21051;-61
2021/07/12 00:28:31;;;;;;;9.85;6.53;;;;;;;20.12;100.00;100144.48;2736578;87;21004;-62
2021/07/12 00:32:33;;;;;;;14.55;7.60;;;;;;;20.11;100.00;100149.56;2736218;85;21084;-63
2021/07/12 00:36:35;;;;;;;12.53;6.40;;;;;;;20.12;100.00;100145.83;2736426;87;20961;-61
2021/07/12 00:40:37;;;;;;;19.17;7.47;;;;;;;20.15;100.00;100150.52;2736343;87;21087;-62
2021/07/12 00:44:40;;;;;;;20.97;7.12;;;;;;;20.15;100.00;100154.07;2736079;86;21043;-60
2021/07/12 00:48:42;;;;;;;13.60;7.10;;;;;;;20.17;100.00;100152.52;2736440;87;20984;-63
2021/07/12 00:52:46;;;;;;;19.77;8.70;;;;;;;20.22;100.00;100149.56;2729657;87;21550;-62
2021/07/12 00:56:48;;;;;;;14.98;6.75;;;;;;;20.24;100.00;100148.84;2724578;87;20993;-64
2021/07/12 01:00:54;;;;;;;11.30;6.95;;;;;;;20.30;100.00;100158.55;2724569;87;21037;-63
2021/07/12 01:04:57;;;;;;;15.23;7.78;;;;;;;20.35;100.00;100152.08;2724706;87;21024;-60
2021/07/12 01:08:59;;;;;;;18.27;7.45;;;;;;;20.40;100.00;100160.42;2724577;86;21024;-61
2021/07/12 01:13:46;;;;;;;18.80;6.90;;;;;;;20.36;100.00;100157.27;2724214;86;21080;-61
2021/07/12 01:18:27;;;;;;;19.50;7.97;;;;;;;20.26;100.00;100145.44;2724571;87;21471;-62
2021/07/12 01:23:13;;;;;;;10.60;6.60;;;;;;;20.21;100.00;100160.55;2724342;87;21009;-61
2021/07/12 01:27:43;;;;;;;22.30;7.95;;;;;;;20.30;100.00;100156.70;2724252;86;21020;-63
2021/07/12 01:32:05;;;;;;;19.27;9.13;;;;;;;20.39;100.00;100152.83;2724153;86;21081;-62
2021/07/12 01:36:32;;;;;;;36.30;8.20;;;;;;;20.43;100.00;100146.53;2724283;86;21009;-63
2021/07/12 01:40:55;;;;;;;22.98;8.35;;;;;;;20.41;100.00;100140.48;2724203;87;21514;-62
2021/07/12 01:45:10;;;;;;;20.55;9.05;;;;;;;20.38;100.00;100121.44;2724406;87;20981;-62
2021/07/12 01:49:23;;;;;;;22.05;6.60;;;;;;;20.30;100.00;100113.48;2724781;86;21400;-62
2021/07/12 01:53:53;;;;;;;33.58;9.25;;;;;;;20.32;100.00;100110.08;2731624;87;21036;-60
2021/07/12 01:58:02;;;;;;;28.27;7.30;;;;;;;20.30;100.00;100104.53;2735822;87;21068;-61
2021/07/12 02:02:06;;;;;;;14.43;6.78;;;;;;;20.35;100.00;100110.22;2736424;87;21008;-61
2021/07/12 02:06:14;;;;;;;17.35;7.90;;;;;;;20.45;100.00;100121.50;2736168;87;20957;-61
2021/07/12 02:10:20;;;;;;;23.73;7.90;;;;;;;20.56;100.00;100129.59;2736524;87;21560;-61
2021/07/12 02:14:24;;;;;;;24.90;7.58;;;;;;;20.63;100.00;100122.36;2736285;87;21017;-62
2021/07/12 02:18:28;;;;;;;13.45;8.00;;;;;;;20.64;100.00;100118.66;2736552;86;21024;-63
2021/07/12 02:22:33;;;;;;;18.52;8.83;;;;;;;20.62;100.00;100120.69;2736559;86;21138;-62
2021/07/12 02:26:36;;;;;;;23.55;10.78;;;;;;;20.63;100.00;100124.24;2736695;87;21008;-62
2021/07/12 02:30:39;;;;;;;24.07;8.48;;;;;;;20.68;100.00;100110.47;2709762;87;21045;-63
2021/07/12 02:34:46;;;;;;;18.57;8.98;;;;;;;20.65;100.00;100108.16;2740647;86;21026;-62
2021/07/12 02:38:50;;;;;;;29.35;8.88;;;;;;;20.69;100.00;100098.63;2701048;88;21053;-64
2021/07/12 02:42:55;;;;;;;19.52;8.75;;;;;;;20.53;100.00;100085.41;2740449;87;21054;-62
2021/07/12 02:46:59;;;;;;;22.52;8.05;;;;;;;20.48;100.00;100085.17;2701575;88;21095;-62
2021/07/12 02:51:06;;;;;;;20.92;9.35;;;;;;;20.44;100.00;100102.78;2740086;87;21022;-63
2021/07/12 02:55:13;;;;;;;24.43;7.87;;;;;;;20.34;100.00;100108.52;2782323;85;21041;-63
2021/07/12 02:59:15;;;;;;;27.40;10.55;;;;;;;20.34;100.00;100117.47;2783841;85;21031;-63
2021/07/12 03:03:17;;;;;;;27.77;10.00;;;;;;;20.39;100.00;100118.24;2722002;87;21801;-62
2021/07/12 03:07:29;;;;;;;27.90;10.50;;;;;;;20.41;100.00;100117.00;2699705;87;21123;-64
2021/07/12 03:11:59;;;;;;;32.38;10.95;;;;;;;20.45;100.00;100116.10;2721938;87;21586;-64
2021/07/12 03:16:01;;;;;;;39.70;11.55;;;;;;;20.45;100.00;100115.28;2716424;87;21995;-61
2021/07/12 03:20:06;;;;;;;26.27;11.00;;;;;;;20.44;100.00;100113.08;2722235;87;21070;-67
2021/07/12 03:24:10;;;;;;;34.73;10.13;;;;;;;20.49;100.00;100112.50;2724069;87;21056;-69
2021/07/12 03:28:13;;;;;;;30.37;11.85;;;;;;;20.52;100.00;100104.00;2724323;87;21035;-67
2021/07/12 03:32:24;;;;;;;41.30;11.63;;;;;;;20.49;100.00;100094.94;2724467;87;21012;-67
2021/07/12 03:36:30;;;;;;;25.97;10.82;;;;;;;20.43;100.00;100074.09;2724246;86;21099;-67
2021/07/12 03:40:32;;;;;;;34.03;12.82;;;;;;;20.37;100.00;100077.09;2724419;86;21020;-67
2021/07/12 03:44:34;;;;;;;33.18;11.22;;;;;;;20.44;100.00;100070.36;2724356;87;21024;-68
2021/07/12 03:48:44;;;;;;;34.15;11.70;;;;;;;20.57;100.00;100063.71;2700404;87;21104;-67
2021/07/12 03:52:51;;;;;;;39.42;12.25;;;;;;;20.62;100.00;100064.48;2720456;87;21561;-68
2021/07/12 03:56:53;;;;;;;41.42;16.80;;;;;;;20.62;100.00;100054.48;2712609;87;21021;-69
2021/07/12 04:00:55;;;;;;;28.75;11.48;;;;;;;20.66;100.00;100054.94;2712599;87;21040;-70
2021/07/12 04:04:58;;;;;;;39.98;11.38;;;;;;;20.72;100.00;100056.02;2711948;87;21570;-67
2021/07/12 04:09:00;;;;;;;31.73;12.70;;;;;;;20.75;100.00;100045.66;2712080;87;21017;-69
2021/07/12 04:13:04;;;;;;;40.70;18.70;;;;;;;20.70;100.00;100061.61;2712013;87;21080;-71
2021/07/12 04:17:06;;;;;;;19.65;11.33;;;;;;;20.73;100.00;100066.61;2712042;87;21091;-69
2021/07/12 04:21:08;;;;;;;36.50;12.25;;;;;;;20.71;100.00;100072.73;2712370;87;21036;-67
2021/07/12 04:25:12;;;;;;;39.75;12.33;;;;;;;20.61;100.00;100070.38;2712178;87;21562;-69
2021/07/12 04:29:13;;;;;;;27.70;11.30;;;;;;;20.53;100.00;100076.77;2711272;87;21008;-65
2021/07/12 04:33:15;;;;;;;24.65;9.58;;;;;;;20.44;100.00;100069.86;2710783;87;21071;-68
2021/07/12 04:37:19;;;;;;;24.20;11.63;;;;;;;20.37;100.00;100058.18;2683382;87;21059;-71
2021/07/12 04:41:20;;;;;;;36.68;14.20;;;;;;;20.35;100.00;100052.14;2683853;88;21068;-69
2021/07/12 04:45:26;;;;;;;40.63;14.18;;;;;;;20.37;100.00;100044.14;2683676;88;21274;-69
2021/07/12 04:49:26;;;;;;;22.15;12.40;;;;;;;20.42;100.00;100042.21;2679323;88;21600;-68
2021/07/12 04:53:28;;;;;;;20.92;12.73;;;;;;;20.38;100.00;100048.52;2682731;88;21051;-72
2021/07/12 04:57:29;;;;;;;20.75;13.03;;;;;;;20.36;100.00;100055.98;2701945;87;21682;-70
2021/07/12 05:01:33;;;;;;;24.60;14.40;;;;;;;20.36;100.00;100071.37;2687516;87;21108;-71
2021/07/12 05:05:35;;;;;;;26.25;14.33;;;;;;;20.34;100.00;100079.66;2687332;87;21043;-68
2021/07/12 05:09:37;;;;;;;27.67;15.53;;;;;;;20.31;100.00;100074.64;2702203;88;21056;-68
2021/07/12 05:13:41;;;;;;;15.05;11.97;;;;;;;20.26;100.00;100062.25;2687773;88;21024;-69
2021/07/12 05:17:43;;;;;;;20.25;15.05;;;;;;;20.23;100.00;100034.26;2702457;87;21571;-69
2021/07/12 05:21:46;;;;;;;24.02;15.78;;;;;;;20.27;100.00;100023.41;2687501;87;21051;-70
2021/07/12 05:25:48;;;;;;;21.00;14.63;;;;;;;20.28;100.00;100026.93;2702339;88;21099;-71
2021/07/12 05:29:50;;;;;;;21.93;14.18;;;;;;;20.28;100.00;100026.93;2687155;88;21072;-70
2021/07/12 05:33:52;;;;;;;16.17;13.48;;;;;;;20.29;100.00;100018.64;2702393;88;21095;-71
2021/07/12 05:37:54;;;;;;;22.15;14.78;;;;;;;20.35;100.00;100007.05;2687383;88;21095;-71
2021/07/12 05:41:57;;;;;;;18.15;14.45;;;;;;;20.43;100.00;100015.52;2678025;88;24098;-71
2021/07/12 05:46:02;;;;;;;18.37;13.78;;;;;;;20.49;100.00;100026.05;2687510;88;21020;-71
2021/07/12 05:50:07;;;;;;;16.27;12.83;;;;;;;20.59;100.00;100019.77;2679032;88;21580;-71
2021/07/12 05:54:09;;;;;;;21.35;14.80;;;;;;;20.71;100.00;100034.08;2666058;88;21062;-71
2021/07/12 05:58:11;;;;;;;19.45;14.53;;;;;;;20.79;100.00;100044.72;2653858;88;21046;-71
2021/07/12 06:02:13;;;;;;;24.32;16.15;;;;;;;20.95;100.00;100045.78;2653823;88;21055;-71
2021/07/12 06:06:15;;;;;;;17.35;13.18;;;;;;;21.08;100.00;100050.95;2653942;89;21099;-70
2021/07/12 06:10:16;;;;;;;22.02;16.73;;;;;;;21.16;100.00;100047.23;2653701;89;21064;-70
2021/07/12 06:14:19;;;;;;;26.25;18.48;;;;;;;21.28;100.00;100047.48;2653881;89;21114;-69
2021/07/12 06:18:21;;;;;;;29.72;18.42;;;;;;;21.44;100.00;100063.87;2653923;89;21058;-68
2021/07/12 06:22:23;;;;;;;35.73;21.42;;;;;;;21.65;100.00;100053.46;2653862;89;21171;-67
2021/07/12 06:26:25;;;;;;;19.77;16.23;;;;;;;21.93;100.00;100054.66;2654310;89;21115;-66
2021/07/12 06:30:26;;;;;;;20.02;17.32;;;;;;;22.03;100.00;100074.56;2654488;89;21372;-66
2021/07/12 06:34:28;;;;;;;21.07;15.63;;;;;;;21.99;100.00;100088.17;2654627;89;21035;-66
2021/07/12 06:38:31;;;;;;;25.85;18.57;;;;;;;21.96;100.00;100086.73;2654556;89;21106;-66
2021/07/12 06:42:33;;;;;;;17.20;15.38;;;;;;;21.88;100.00;100101.80;2654758;89;21703;-66
2021/07/12 06:46:35;;;;;;;18.27;15.25;;;;;;;21.81;100.00;100096.40;2654866;88;21043;-66
2021/07/12 06:50:37;;;;;;;22.62;17.85;;;;;;;21.85;100.00;100104.10;2654911;89;21046;-66
2021/07/12 06:54:39;;;;;;;20.85;16.50;;;;;;;21.82;100.00;100098.06;2662501;88;21095;-66
2021/07/12 06:58:43;;;;;;;25.60;16.00;;;;;;;21.85;100.00;100108.16;2770350;86;21499;-66
2021/07/12 07:02:44;;;;;;;21.23;17.62;;;;;;;21.79;100.00;100098.45;2770262;86;20962;-66
2021/07/12 07:06:46;;;;;;;18.67;16.52;;;;;;;21.83;100.00;100102.44;2770364;86;21029;-66
2021/07/12 07:10:48;;;;;;;22.93;18.40;;;;;;;21.99;100.00;100107.12;2712852;87;21000;-66
2021/07/12 07:14:50;;;;;;;25.77;18.60;;;;;;;22.05;100.00;100100.91;2712716;86;21064;-66
2021/07/12 07:18:52;;;;;;;20.10;16.97;;;;;;;22.10;100.00;100105.18;2712936;87;21459;-66
2021/07/12 07:22:53;;;;;;;20.17;17.07;;;;;;;22.21;100.00;100111.86;2713518;87;21088;-67
2021/07/12 07:26:55;;;;;;;19.40;14.47;;;;;;;22.21;100.00;100119.16;2713614;87;21056;-67
2021/07/12 07:30:57;;;;;;;18.00;15.00;;;;;;;22.20;100.00;100116.96;2714123;87;20988;-67
2021/07/12 07:35:01;;;;;;;21.02;16.20;;;;;;;22.08;100.00;100115.39;2713861;87;21124;-66
2021/07/12 07:39:04;;;;;;;23.38;18.62;;;;;;;22.01;100.00;100115.91;2713829;87;21044;-68
2021/07/12 07:43:06;;;;;;;21.17;15.90;;;;;;;22.07;100.00;100119.14;2714153;87;21004;-68
2021/07/12 07:47:09;;;;;;;18.77;16.80;;;;;;;22.06;100.00;100122.04;2713672;87;21056;-68
2021/07/12 07:51:11;;;;;;;20.20;18.00;;;;;;;21.98;100.00;100120.36;2713564;87;21594;-69
2021/07/12 07:55:14;;;;;;;20.65;18.42;;;;;;;22.01;100.00;100120.47;2704194;87;21059;-69
2021/07/12 07:59:16;;;;;;;23.62;18.82;;;;;;;21.99;100.00;100117.95;2679602;88;21082;-68
2021/07/12 08:03:18;;;;;;;19.75;16.97;;;;;;;22.02;100.00;100113.52;2679736;88;21038;-73
2021/07/12 08:07:21;;;;;;;20.50;16.93;;;;;;;21.91;100.00;100100.06;2679512;87;21003;-69
2021/07/12 08:11:23;;;;;;;19.80;14.98;;;;;;;21.88;100.00;100104.50;2679525;88;21063;-68
2021/07/12 08:15:28;;;;;;;16.67;14.98;;;;;;;21.89;100.00;100110.77;2679565;88;21532;-72
2021/07/12 08:19:30;;;;;;;16.73;15.00;;;;;;;21.92;100.00;100104.94;2679755;88;21061;-69
2021/07/12 08:23:31;;;;;;;19.27;15.08;;;;;;;21.95;100.00;100096.41;2679590;88;21078;-69
2021/07/12 08:27:33;;;;;;;26.57;19.90;;;;;;;22.02;100.00;100078.31;2679643;88;21038;-71
2021/07/12 08:31:34;;;;;;;29.50;20.72;;;;;;;22.27;100.00;100066.86;2679887;88;21555;-69
2021/07/12 08:35:38;;;;;;;38.08;20.90;;;;;;;22.57;100.00;100071.84;2679651;89;21074;-71
2021/07/12 08:39:40;;;;;;;26.75;18.90;;;;;;;22.89;100.00;100074.72;2680330;87;21101;-71
2021/07/12 08:43:47;;;;;;;15.58;13.50;;;;;;;23.19;100.00;100073.38;2680547;88;21059;-70
2021/07/12 08:47:49;;;;;;;15.23;11.73;;;;;;;23.24;100.00;100079.83;2680347;88;21034;-69
2021/07/12 08:51:51;;;;;;;16.20;12.33;;;;;;;23.22;100.00;100085.14;2679900;88;21018;-68
2021/07/12 08:55:52;;;;;;;15.43;11.25;;;;;;;23.25;100.00;100088.30;2659951;88;21027;-68
2021/07/12 08:59:57;;;;;;;15.60;12.58;;;;;;;23.37;100.00;100083.55;2652183;89;21597;-67
2021/07/12 09:04:03;;;;;;;12.40;11.20;;;;;;;23.38;100.00;100079.78;2652555;89;21074;-67
2021/07/12 09:08:06;;;;;;;12.07;10.90;;;;;;;23.68;100.00;100060.22;2652292;88;21497;-67
2021/07/12 09:12:18;;;;;;;10.32;8.35;;;;;;;24.25;100.00;100053.45;2652527;88;21040;-68
2021/07/12 09:16:43;;;;;;;10.45;9.20;;;;;;;24.56;93.21;100046.78;2652736;89;21044;-67
2021/07/12 09:20:45;;;;;;;11.43;10.32;;;;;;;24.55;93.39;100047.03;2627493;89;21000;-67
2021/07/12 09:25:02;;;;;;;8.83;7.92;;;;;;;24.62;94.39;100052.70;2652694;89;21042;-67
2021/07/12 09:29:04;;;;;;;9.73;7.92;;;;;;;24.67;92.65;100056.93;2652468;89;21047;-66
2021/07/12 09:33:05;;;;;;;23.45;18.75;;;;;;;24.70;91.25;100061.09;2652988;89;21039;-67
2021/07/12 09:37:11;;;;;;;11.65;9.15;;;;;;;24.45;89.23;100057.05;2653271;88;21074;-67
2021/07/12 09:41:31;;;;;;;8.55;7.50;;;;;;;24.47;92.50;100061.73;2653282;89;21450;-67
2021/07/12 09:45:38;;;;;;;29.37;26.60;;;;;;;24.66;93.10;100059.86;2653111;89;21111;-67
2021/07/12 09:49:41;;;;;;;35.23;28.10;;;;;;;24.83;91.54;100060.15;2653122;88;21568;-67
2021/07/12 09:53:43;;;;;;;30.82;24.80;;;;;;;24.80;90.12;100053.81;2653154;88;21119;-67
2021/07/12 09:57:44;;;;;;;32.38;24.32;;;;;;;24.85;88.89;100061.27;2653302;89;21095;-67
2021/07/12 10:01:55;;;;;;;11.97;9.68;;;;;;;24.85;88.32;100058.03;2652556;89;21561;-68
2021/07/12 10:05:58;;;;;;;11.68;10.48;;;;;;;25.16;89.03;100043.98;2653399;88;21015;-68
2021/07/12 10:10:03;;;;;;;12.70;10.15;;;;;;;25.60;87.01;100044.36;2653618;89;21087;-67
2021/07/12 10:14:10;;;;;;;8.93;8.08;;;;;;;25.71;87.61;100042.19;2653739;89;21015;-69
2021/07/12 10:18:12;;;;;;;8.45;7.45;;;;;;;25.72;85.26;100042.48;2653541;88;21082;-69
2021/07/12 10:22:16;;;;;;;12.13;10.35;;;;;;;25.64;84.71;100045.00;2653437;88;21051;-69
2021/07/12 10:26:50;;;;;;;14.47;11.97;;;;;;;25.52;83.73;100040.07;2653560;89;21023;-68
2021/07/12 10:30:51;;;;;;;8.50;7.72;;;;;;;25.34;83.25;100047.70;2653362;89;21027;-69
2021/07/12 10:34:56;;;;;;;22.95;15.48;;;;;;;25.15;86.69;100051.81;2653357;89;21103;-69
2021/07/12 10:38:58;;;;;;;11.00;9.63;;;;;;;24.93;85.84;100049.56;2653270;88;21019;-68
2021/07/12 10:43:00;;;;;;;16.60;10.15;;;;;;;24.95;87.75;100039.83;2652904;89;21067;-68
2021/07/12 10:47:03;;;;;;;6.35;5.30;;;;;;;25.23;86.64;100025.66;2653303;89;21099;-69
2021/07/12 10:51:39;;;;;;;52.15;26.35;;;;;;;25.60;86.73;100004.88;2653373;88;21027;-69
2021/07/12 10:55:45;;;;;;;37.78;21.02;;;;;;;25.88;86.27;100006.11;2652851;88;21537;-70
2021/07/12 10:59:47;;;;;;;6.55;5.92;;;;;;;26.12;83.99;100000.67;2652532;88;21600;-69
2021/07/12 11:03:54;;;;;;;5.47;4.17;;;;;;;25.87;79.24;100003.09;2652071;89;21093;-69
2021/07/12 11:07:56;;;;;;;5.70;3.80;;;;;;;25.74;79.49;99995.41;2652239;88;21114;-69
2021/07/12 11:11:58;;;;;;;6.37;3.77;;;;;;;25.76;80.35;99998.77;2653229;89;21529;-70
2021/07/12 11:16:22;;;;;;;6.50;3.58;;;;;;;25.63;81.18;99994.33;2652355;89;21111;-70
2021/07/12 11:21:03;;;;;;;4.37;3.33;;;;;;;25.57;82.96;99983.56;2653196;89;21103;-70
2021/07/12 11:25:10;;;;;;;5.05;3.85;;;;;;;25.67;82.55;99979.72;2652403;89;21584;-69
2021/07/12 11:29:17;;;;;;;4.15;3.80;;;;;;;25.65;78.70;99984.06;2652100;89;21046;-70
2021/07/12 11:33:31;;;;;;;5.92;3.75;;;;;;;25.54;79.21;99979.40;2652122;89;21585;-69
2021/07/12 11:37:34;;;;;;;4.17;3.77;;;;;;;25.59;80.62;99978.70;2652029;88;21056;-69
2021/07/12 11:41:36;;;;;;;4.20;3.20;;;;;;;25.75;79.29;99974.47;2652875;89;21079;-71
2021/07/12 11:45:38;;;;;;;4.15;2.60;;;;;;;25.88;79.65;99972.05;2653390;89;21039;-69
2021/07/12 11:49:39;;;;;;;3.92;3.58;;;;;;;26.05;78.68;99970.29;2653773;88;20983;-69
2021/07/12 11:53:46;;;;;;;3.02;2.77;;;;;;;26.04;76.77;99972.72;2653845;89;21047;-70
2021/07/12 11:57:52;;;;;;;3.42;3.12;;;;;;;26.04;76.51;99969.15;2653255;88;21066;-69
2021/07/12 12:02:07;;;;;;;2.80;2.60;;;;;;;25.84;75.13;99964.06;2652509;89;21128;-69
2021/07/12 12:06:08;;;;;;;2.77;2.52;;;;;;;25.57;76.91;99965.86;2652313;89;21374;-70
2021/07/12 12:10:19;;;;;;;4.03;3.52;;;;;;;25.41;78.20;99967.31;2652695;89;21023;-70
2021/07/12 12:14:24;;;;;;;5.17;3.85;;;;;;;25.35;81.00;99960.38;2652126;89;21143;-70
2021/07/12 12:18:29;;;;;;;3.70;3.40;;;;;;;25.58;84.87;99957.44;2652909;89;21458;-70
2021/07/12 12:22:30;;;;;;;4.85;4.03;;;;;;;25.79;83.87;99957.43;2653084;89;20999;-69
2021/07/12 12:26:33;;;;;;;5.87;3.87;;;;;;;25.96;83.09;99955.37;2652973;89;20996;-68
2021/07/12 12:30:41;;;;;;;3.75;3.45;;;;;;;26.13;80.47;99950.55;2653614;89;21079;-70
2021/07/12 12:34:44;;;;;;;4.47;3.25;;;;;;;26.24;78.03;99942.95;2652850;89;21545;-70
2021/07/12 12:39:07;;;;;;;4.05;2.83;;;;;;;26.49;78.40;99935.86;2652999;89;21068;-69
2021/07/12 12:43:17;;;;;;;3.62;3.30;;;;;;;26.72;75.21;99926.47;2652711;88;21090;-69
2021/07/12 12:47:26;;;;;;;3.40;3.10;;;;;;;26.98;75.92;99927.02;2653091;89;21054;-70
2021/07/12 12:51:39;;;;;;;4.17;3.30;;;;;;;27.04;74.86;99924.67;2652447;88;21015;-63
2021/07/12 12:55:46;;;;;;;4.70;3.17;;;;;;;27.10;75.33;99918.23;2654181;88;21018;-65
2021/07/12 12:59:48;;;;;;;3.05;2.75;;;;;;;27.22;75.80;99913.55;2659529;89;21093;-65
2021/07/12 13:03:50;;;;;;;4.03;3.72;;;;;;;27.42;75.77;99904.05;2663298;89;21534;-64
2021/07/12 13:07:57;;;;;;;5.47;4.08;;;;;;;27.60;74.12;99902.18;2663248;88;21088;-65
2021/07/12 13:12:24;;;;;;;7.53;3.27;;;;;;;27.93;75.80;99892.31;2651870;88;21046;-66
2021/07/12 13:16:29;;;;;;;4.10;2.90;;;;;;;28.20;72.35;99883.40;2652347;89;21079;-64
2021/07/12 13:20:31;;;;;;;3.15;2.50;;;;;;;28.33;70.75;99872.09;2652686;89;21060;-64
2021/07/12 13:24:45;;;;;;;4.37;3.05;;;;;;;28.39;69.92;99865.31;2653519;89;21042;-62
2021/07/12 13:28:47;;;;;;;3.17;2.60;;;;;;;28.13;67.25;99860.87;2663077;89;21041;-63
2021/07/12 13:32:49;;;;;;;2.52;2.33;;;;;;;27.72;68.17;99861.95;2662725;89;21022;-63
2021/07/12 13:36:53;;;;;;;2.02;1.62;;;;;;;27.63;68.58;99859.34;2662697;88;21041;-62
2021/07/12 13:40:55;;;;;;;4.58;2.65;;;;;;;27.48;67.88;99857.17;2663074;88;21532;-63
2021/07/12 13:44:57;;;;;;;2.15;1.77;;;;;;;27.41;67.64;99857.34;2662577;88;21081;-62
2021/07/12 13:48:58;;;;;;;2.83;2.62;;;;;;;27.40;68.14;99851.59;2662907;88;21077;-63
2021/07/12 13:53:04;;;;;;;1.60;1.50;;;;;;;27.45;69.22;99845.39;2662753;89;21013;-62
2021/07/12 13:57:07;;;;;;;2.47;1.72;;;;;;;27.43;66.28;99840.16;2691944;88;21084;-63
2021/07/12 14:01:09;;;;;;;2.12;1.92;;;;;;;27.50;65.72;99838.08;2707525;88;21061;-63
2021/07/12 14:05:18;;;;;;;2.05;1.87;;;;;;;27.70;67.69;99835.95;2798417;85;21011;-62
2021/07/12 14:09:21;;;;;;;2.40;2.20;;;;;;;27.98;68.28;99829.51;2798654;85;21556;-62
2021/07/12 14:13:23;;;;;;;1.45;1.35;;;;;;;28.25;66.57;99823.30;2798617;85;21006;-61
2021/07/12 14:17:25;;;;;;;3.20;1.30;;;;;;;28.41;63.21;99817.49;2798776;85;21126;-61
2021/07/12 14:21:26;;;;;;;1.55;1.35;;;;;;;28.49;63.28;99805.23;2799172;85;21055;-64
2021/07/12 14:25:31;;;;;;;6.15;1.67;;;;;;;28.63;62.48;99801.02;2799402;85;21070;-62
2021/07/12 14:29:33;;;;;;;9.00;1.77;;;;;;;28.77;64.56;99801.42;2799457;84;21023;-62
2021/07/12 14:33:35;;;;;;;4.65;2.40;;;;;;;28.83;62.87;99803.70;2799231;85;21024;-62
2021/07/12 14:37:37;;;;;;;1.75;1.60;;;;;;;28.70;61.97;99803.55;2799304;85;20991;-60
2021/07/12 14:41:40;;;;;;;2.08;1.82;;;;;;;28.74;61.43;99799.77;2799184;85;21035;-62
2021/07/12 14:45:42;;;;;;;2.05;1.87;;;;;;;28.82;62.99;99807.52;2799656;84;21056;-63
2021/07/12 14:49:43;;;;;;;3.20;2.35;;;;;;;28.93;65.57;99805.17;2799745;85;20983;-61
2021/07/12 14:53:45;;;;;;;2.12;1.70;;;;;;;29.15;65.20;99811.10;2800069;85;20975;-61
2021/07/12 14:57:47;;;;;;;2.92;1.37;;;;;;;29.30;63.83;99812.31;2790762;84;21036;-60
2021/07/12 15:01:49;;;;;;;1.70;1.22;;;;;;;29.35;63.41;99810.41;2788222;85;21003;-62
2021/07/12 15:05:55;;;;;;;1.80;1.52;;;;;;;29.58;64.36;99813.91;2788444;85;20968;-60
2021/07/12 15:09:57;;;;;;;1.75;1.50;;;;;;;29.72;63.18;99807.41;2787733;85;21265;-63
2021/07/12 15:14:01;;;;;;;2.85;2.60;;;;;;;29.88;62.19;99797.91;2788178;85;21007;-60
2021/07/12 15:18:03;;;;;;;2.08;1.95;;;;;;;30.06;62.07;99788.40;2788049;85;21008;-60
2021/07/12 15:22:06;;;;;;;3.02;2.37;;;;;;;29.92;63.44;99777.08;2787878;84;20984;-62
2021/07/12 15:26:08;;;;;;;2.60;2.40;;;;;;;29.68;62.95;99782.16;2787755;85;21036;-61
2021/07/12 15:30:13;;;;;;;7.33;2.45;;;;;;;29.68;62.95;99782.16;2787534;85;21011;-61
2021/07/12 15:34:35;;;;;;;2.33;2.12;;;;;;;29.38;62.09;99757.56;2788010;85;21070;-60
2021/07/12 15:38:38;;;;;;;2.75;2.20;;;;;;;29.31;63.03;99779.73;2787723;85;20988;-62
2021/07/12 15:42:41;;;;;;;3.52;2.50;;;;;;;29.07;61.89;99775.45;2787413;85;21020;-60
2021/07/12 15:46:44;;;;;;;2.67;2.33;;;;;;;29.04;62.95;99767.77;2787581;85;21758;-60
2021/07/12 15:50:47;;;;;;;2.60;2.40;;;;;;;29.06;61.76;99766.11;2787203;84;21027;-60
2021/07/12 15:54:52;;;;;;;2.95;2.65;;;;;;;29.11;62.58;99762.07;2787656;85;21032;-61
2021/07/12 15:59:00;;;;;;;2.75;1.40;;;;;;;29.00;60.69;99746.64;2798807;85;21023;-60
2021/07/12 16:03:07;;;;;;;4.28;1.98;;;;;;;29.19;60.40;99768.41;2799911;85;21042;-61
2021/07/12 16:07:10;;;;;;;2.87;1.75;;;;;;;29.19;60.40;99768.41;2799808;85;21067;-61
2021/07/12 16:11:13;;;;;;;3.70;1.98;;;;;;;29.30;60.89;99773.97;2799245;85;21031;-62
2021/07/12 16:15:21;;;;;;;28.67;17.25;;;;;;;29.30;62.59;99767.13;2799956;83;22154;-60
2021/07/12 16:19:25;;;;;;;7.50;4.72;;;;;;;29.32;60.26;99777.27;2799803;85;21035;-62
2021/07/12 16:23:27;;;;;;;1.32;1.22;;;;;;;29.11;59.09;99754.38;2799699;85;21075;-61
2021/07/12 16:27:30;;;;;;;3.67;2.30;;;;;;;29.19;58.12;99783.47;2799933;85;21043;-62
2021/07/12 16:31:35;;;;;;;2.40;1.50;;;;;;;29.06;57.87;99777.06;2745004;86;21011;-60
2021/07/12 16:35:38;;;;;;;1.50;1.40;;;;;;;28.96;59.61;99775.62;2744755;85;21023;-61
2021/07/12 16:39:40;;;;;;;2.45;2.02;;;;;;;28.98;59.64;99778.93;2744348;86;20967;-61
2021/07/12 16:43:42;;;;;;;2.58;2.02;;;;;;;29.01;59.46;99767.45;2744576;86;21038;-60
2021/07/12 16:47:44;;;;;;;2.12;1.65;;;;;;;29.02;58.40;99763.63;2743866;85;21082;-61
2021/07/12 16:51:46;;;;;;;7.33;2.12;;;;;;;29.02;58.40;99763.63;2744820;86;21039;-61
2021/07/12 16:55:49;;;;;;;2.47;2.05;;;;;;;28.93;61.05;99759.17;2719574;86;21055;-61
2021/07/12 16:59:51;;;;;;;1.95;1.75;;;;;;;28.90;60.47;99763.28;2735679;87;21047;-61
2021/07/12 17:03:56;;;;;;;4.03;2.83;;;;;;;28.93;62.58;99757.80;2735676;87;21030;-60
2021/07/12 17:07:58;;;;;;;4.35;2.98;;;;;;;28.98;64.72;99747.45;2734577;85;21110;-61
2021/07/12 17:11:59;;;;;;;2.50;2.27;;;;;;;28.86;63.99;99749.00;2734218;87;22314;-60
2021/07/12 17:16:07;;;;;;;2.35;2.15;;;;;;;28.80;64.78;99746.76;2735093;87;21064;-61
2021/07/12 17:20:12;;;;;;;3.15;2.52;;;;;;;28.77;64.95;99748.63;2735155;87;21035;-61
2021/07/12 17:24:14;;;;;;;2.77;2.33;;;;;;;28.64;64.80;99738.94;2735230;87;20971;-59
2021/07/12 17:28:17;;;;;;;3.30;2.55;;;;;;;28.43;66.30;99742.01;2667131;87;21046;-58
2021/07/12 17:32:19;;;;;;;5.65;3.47;;;;;;;28.30;66.03;99737.25;2664814;89;21022;-60
2021/07/12 17:36:24;;;;;;;3.75;2.35;;;;;;;28.21;66.86;99737.41;2664494;88;21043;-60
2021/07/12 17:40:26;;;;;;;8.25;2.58;;;;;;;28.15;67.20;99727.48;2664302;88;21102;-58
2021/07/12 17:44:33;;;;;;;5.53;3.05;;;;;;;28.06;68.15;99727.92;2664096;89;21015;-58
2021/07/12 17:48:35;;;;;;;2.87;2.58;;;;;;;27.97;67.39;99732.73;2664267;88;21058;-59
2021/07/12 17:52:37;;;;;;;3.98;3.65;;;;;;;27.84;68.04;99739.41;2664166;89;21054;-59
2021/07/12 17:56:39;;;;;;;5.97;3.42;;;;;;;27.65;68.29;99735.09;2706947;86;21073;-59
2021/07/12 18:00:41;;;;;;;3.95;3.45;;;;;;;27.56;68.83;99731.13;2743904;86;20992;-60
2021/07/12 18:04:45;;;;;;;3.83;2.90;;;;;;;27.57;69.28;99730.61;2743557;86;21074;-61
2021/07/12 18:08:46;;;;;;;3.55;3.25;;;;;;;27.52;70.34;99728.63;2719258;86;21035;-59
2021/07/12 18:12:49;;;;;;;4.70;3.90;;;;;;;27.43;70.92;99733.66;2703279;88;21033;-61
2021/07/12 18:16:58;;;;;;;5.95;3.55;;;;;;;27.39;71.96;99740.72;2743544;85;21066;-60
2021/07/12 18:21:00;;;;;;;4.97;3.52;;;;;;;27.20;72.61;99735.53;2704438;88;21037;-60
2021/07/12 18:25:05;;;;;;;5.20;3.65;;;;;;;27.00;73.38;99735.22;2743572;86;21035;-59
2021/07/12 18:29:08;;;;;;;5.60;4.37;;;;;;;26.84;73.90;99734.93;2739708;87;21016;-60
2021/07/12 18:33:11;;;;;;;4.30;3.60;;;;;;;26.65;74.20;99735.72;2739597;87;20992;-61
2021/07/12 18:37:15;;;;;;;9.98;2.85;;;;;;;26.46;74.61;99739.18;2739488;87;21004;-60
2021/07/12 18:41:17;;;;;;;3.75;3.45;;;;;;;26.30;75.43;99733.44;2711944;87;21092;-60
2021/07/12 18:45:20;;;;;;;4.33;3.92;;;;;;;26.11;75.84;99735.52;2743187;86;21042;-60